Station Historical Data
Daily Summary for May 1, 2012 Units:  Both    English   Metric
« Previous Day
Next Day »
Daily Weekly Monthly Yearly Custom
  High: Low: Average:
Temperature: 63.9 °F /  17.7 °C 51.6 °F /  10.9 °C 57.2 °F /  14 °C
Dew Point: 55.6 °F /  13.1 °C 44.2 °F /  6.8 °C 50.2 °F /  10.1 °C
Humidity: 90% 65% 78%
Wind Speed: 14mph /  22.5km/h - 5.7mph /  9.2km/h
Wind Gust: 22mph /  35.4km/h - -
Wind- - West
Pressure: 30.2 in /  1021.2 hPa 30 in /  1015.1 hPa -
Precipitation: 0 in /  0 mm    
Historical Graphs
 
 
Tabular Data for May 1, 2012
Time Temperature Dew Point Pressure Wind Wind Speed Wind Gust Humidity Rainfall Rate (Hourly) solar Conditions
00:09 54.7 °F /  12.6 °C 45.7 °F /  7.6 °C 30.2in /  1021.2hPa NNE 2mph /  3.2km/h 4mph /  6.4km/h 72% 0in /  0.0mm 0.0 W/m2 CLR
00:19 54.5 °F /  12.5 °C 45.7 °F /  7.6 °C 30.2in /  1021.2hPa Calm   4mph /  6.4km/h 72% 0in /  0.0mm 0.0 W/m2 CLR
00:29 54.3 °F /  12.4 °C 45.1 °F /  7.3 °C 30.2in /  1020.9hPa Calm   1mph /  1.6km/h 71% 0in /  0.0mm 0.0 W/m2 CLR
00:39 54 °F /  12.2 °C 45.7 °F /  7.6 °C 30.2in /  1020.9hPa NNE 1mph /  1.6km/h 3mph /  4.8km/h 73% 0in /  0.0mm 0.0 W/m2 CLR
00:49 53.8 °F /  12.1 °C 45.3 °F /  7.4 °C 30.2in /  1020.9hPa NNE 1mph /  1.6km/h 4mph /  6.4km/h 73% 0in /  0.0mm 0.0 W/m2 CLR
00:59 54.3 °F /  12.4 °C 45.9 °F /  7.7 °C 30.2in /  1020.9hPa NNE 1mph /  1.6km/h 4mph /  6.4km/h 73% 0in /  0.0mm 0.0 W/m2 CLR
01:09 54.1 °F /  12.3 °C 45.7 °F /  7.6 °C 30.2in /  1020.9hPa NNE 2mph /  3.2km/h 4mph /  6.4km/h 73% 0in /  0.0mm 0.0 W/m2 CLR
01:19 54.3 °F /  12.4 °C 45.7 °F /  7.6 °C 30.2in /  1020.9hPa Calm   3mph /  4.8km/h 72% 0in /  0.0mm 0.0 W/m2 CLR
01:29 53.8 °F /  12.1 °C 45.3 °F /  7.4 °C 30.2in /  1020.9hPa NNE 1mph /  1.6km/h 2mph /  3.2km/h 73% 0in /  0.0mm 0.0 W/m2 CLR
01:39 53.4 °F /  11.9 °C 45.3 °F /  7.4 °C 30.2in /  1020.9hPa Calm     74% 0in /  0.0mm 0.0 W/m2 CLR
01:49 53.8 °F /  12.1 °C 45.1 °F /  7.3 °C 30.1in /  1020.5hPa NNE 2mph /  3.2km/h 3mph /  4.8km/h 73% 0in /  0.0mm 0.0 W/m2 CLR
01:59 53.1 °F /  11.7 °C 45.3 °F /  7.4 °C 30.1in /  1020.5hPa NNE 2mph /  3.2km/h 4mph /  6.4km/h 75% 0in /  0.0mm 0.0 W/m2 CLR
02:09 53.4 °F /  11.9 °C 45.7 °F /  7.6 °C 30.1in /  1020.5hPa NNE 1mph /  1.6km/h 3mph /  4.8km/h 75% 0in /  0.0mm 0.0 W/m2 CLR
02:19 52.9 °F /  11.6 °C 45.1 °F /  7.3 °C 30.1in /  1020.2hPa NNE 2mph /  3.2km/h 4mph /  6.4km/h 75% 0in /  0.0mm 0.0 W/m2 CLR
02:29 53.1 °F /  11.7 °C 45.3 °F /  7.4 °C 30.1in /  1020.2hPa NNE 2mph /  3.2km/h 5mph /  8.0km/h 75% 0in /  0.0mm 0.0 W/m2 CLR
02:39 52.9 °F /  11.6 °C 45.5 °F /  7.5 °C 30.1in /  1019.9hPa NNE 1mph /  1.6km/h 4mph /  6.4km/h 76% 0in /  0.0mm 0.0 W/m2 CLR
02:49 53.1 °F /  11.7 °C 45.7 °F /  7.6 °C 30.1in /  1019.9hPa NNE 2mph /  3.2km/h 4mph /  6.4km/h 76% 0in /  0.0mm 0.0 W/m2 CLR
02:59 53.1 °F /  11.7 °C 45.7 °F /  7.6 °C 30.1in /  1019.9hPa NNE 1mph /  1.6km/h 5mph /  8.0km/h 76% 0in /  0.0mm 0.0 W/m2 CLR
03:09 52.5 °F /  11.4 °C 45.1 °F /  7.3 °C 30.1in /  1019.9hPa NNE 2mph /  3.2km/h 4mph /  6.4km/h 76% 0in /  0.0mm 0.0 W/m2 CLR
03:19 52.2 °F /  11.2 °C 44.8 °F /  7.1 °C 30.1in /  1019.9hPa NNE 3mph /  4.8km/h 4mph /  6.4km/h 76% 0in /  0.0mm 0.0 W/m2 CLR
03:29 52 °F /  11.1 °C 45 °F /  7.2 °C 30.1in /  1019.5hPa NNE 2mph /  3.2km/h 4mph /  6.4km/h 77% 0in /  0.0mm 0.0 W/m2 CLR
03:39 51.6 °F /  10.9 °C 44.2 °F /  6.8 °C 30.1in /  1019.5hPa NNE 1mph /  1.6km/h 5mph /  8.0km/h 76% 0in /  0.0mm 0.0 W/m2 CLR
03:49 52.2 °F /  11.2 °C 44.4 °F /  6.9 °C 30.1in /  1019.5hPa North 5mph /  8.0km/h 7mph /  11.3km/h 75% 0in /  0.0mm 0.0 W/m2 CLR
03:59 52.3 °F /  11.3 °C 44.2 °F /  6.8 °C 30.1in /  1019.5hPa North 2mph /  3.2km/h 7mph /  11.3km/h 74% 0in /  0.0mm 0.0 W/m2 CLR
04:09 52.7 °F /  11.5 °C 44.2 °F /  6.8 °C 30.1in /  1019.5hPa North 2mph /  3.2km/h 6mph /  9.7km/h 73% 0in /  0.0mm 0.0 W/m2 CLR
04:19 53.1 °F /  11.7 °C 44.8 °F /  7.1 °C 30.1in /  1019.2hPa North 3mph /  4.8km/h 6mph /  9.7km/h 73% 0in /  0.0mm 0.0 W/m2 CLR
04:29 53.1 °F /  11.7 °C 44.6 °F /  7.0 °C 30.1in /  1019.5hPa North 2mph /  3.2km/h 4mph /  6.4km/h 73% 0in /  0.0mm 0.0 W/m2 CLR
04:39 52.9 °F /  11.6 °C 44.8 °F /  7.1 °C 30.1in /  1019.2hPa North 1mph /  1.6km/h 5mph /  8.0km/h 74% 0in /  0.0mm 0.0 W/m2 CLR
04:49 53.1 °F /  11.7 °C 45.7 °F /  7.6 °C 30.1in /  1019.2hPa NNW 5mph /  8.0km/h 9mph /  14.5km/h 76% 0in /  0.0mm 0.0 W/m2 CLR
04:59 53.4 °F /  11.9 °C 46.2 °F /  7.9 °C 30.1in /  1018.8hPa NNW 6mph /  9.7km/h 12mph /  19.3km/h 77% 0in /  0.0mm 0.0 W/m2 CLR
05:09 53.8 °F /  12.1 °C 46.8 °F /  8.2 °C 30.1in /  1018.8hPa NNW 7mph /  11.3km/h 12mph /  19.3km/h 77% 0in /  0.0mm 0.0 W/m2 CLR
05:19 53.2 °F /  11.8 °C 46.2 °F /  7.9 °C 30.1in /  1018.8hPa NNW 5mph /  8.0km/h 9mph /  14.5km/h 77% 0in /  0.0mm 0.0 W/m2 CLR
05:29 53.2 °F /  11.8 °C 46.2 °F /  7.9 °C 30.1in /  1018.8hPa NNW 6mph /  9.7km/h 10mph /  16.1km/h 77% 0in /  0.0mm 0.0 W/m2 CLR
05:39 53.2 °F /  11.8 °C 46.2 °F /  7.9 °C 30.1in /  1018.5hPa NNW 7mph /  11.3km/h 12mph /  19.3km/h 77% 0in /  0.0mm 0.0 W/m2 CLR
05:49 53.2 °F /  11.8 °C 45.9 °F /  7.7 °C 30.1in /  1018.5hPa NNW 3mph /  4.8km/h 10mph /  16.1km/h 76% 0in /  0.0mm 0.0 W/m2 CLR
05:59 53.2 °F /  11.8 °C 45.9 °F /  7.7 °C 30.1in /  1018.5hPa NNW 5mph /  8.0km/h 9mph /  14.5km/h 76% 0in /  0.0mm 0.0 W/m2 CLR
06:09 53.2 °F /  11.8 °C 45.9 °F /  7.7 °C 30.1in /  1018.5hPa NNW 3mph /  4.8km/h 6mph /  9.7km/h 76% 0in /  0.0mm 0.0 W/m2 CLR
06:19 53.2 °F /  11.8 °C 45.9 °F /  7.7 °C 30.1in /  1018.5hPa NNW 3mph /  4.8km/h 7mph /  11.3km/h 76% 0in /  0.0mm 0.0 W/m2 CLR
06:29 53.4 °F /  11.9 °C 46 °F /  7.8 °C 30.1in /  1018.5hPa NNW 3mph /  4.8km/h 6mph /  9.7km/h 76% 0in /  0.0mm 0.0 W/m2 CLR
06:39 53.1 °F /  11.7 °C 46 °F /  7.8 °C 30.1in /  1018.5hPa NNW 2mph /  3.2km/h 5mph /  8.0km/h 77% 0in /  0.0mm 0.0 W/m2 CLR
06:49 53.1 °F /  11.7 °C 46 °F /  7.8 °C 30.1in /  1018.5hPa NNW 3mph /  4.8km/h 6mph /  9.7km/h 77% 0in /  0.0mm 0.0 W/m2 CLR
06:59 52.9 °F /  11.6 °C 45.9 °F /  7.7 °C 30.1in /  1018.5hPa NNW 3mph /  4.8km/h 9mph /  14.5km/h 77% 0in /  0.0mm 0.0 W/m2 CLR
07:09 53.1 °F /  11.7 °C 46 °F /  7.8 °C 30.1in /  1018.5hPa NNW 2mph /  3.2km/h 9mph /  14.5km/h 77% 0in /  0.0mm 0.0 W/m2 CLR
07:19 53.1 °F /  11.7 °C 46 °F /  7.8 °C 30.1in /  1018.8hPa NNW 2mph /  3.2km/h 6mph /  9.7km/h 77% 0in /  0.0mm 0.0 W/m2 CLR
07:29 53.1 °F /  11.7 °C 46 °F /  7.8 °C 30.1in /  1018.8hPa NNW 3mph /  4.8km/h 6mph /  9.7km/h 77% 0in /  0.0mm 7.0 W/m2 CLR
07:39 53.4 °F /  11.9 °C 46.8 °F /  8.2 °C 30.1in /  1018.8hPa NNW 3mph /  4.8km/h 6mph /  9.7km/h 78% 0in /  0.0mm 14.0 W/m2 CLR
07:49 53.6 °F /  12.0 °C 46.9 °F /  8.3 °C 30.1in /  1018.5hPa NNW 3mph /  4.8km/h 6mph /  9.7km/h 78% 0in /  0.0mm 16.0 W/m2 CLR
07:59 53.8 °F /  12.1 °C 46.9 °F /  8.3 °C 30.1in /  1018.5hPa NNW 3mph /  4.8km/h 9mph /  14.5km/h 78% 0in /  0.0mm 21.0 W/m2 BKN
08:09 54 °F /  12.2 °C 47.1 °F /  8.4 °C 30.1in /  1018.5hPa NNW 5mph /  8.0km/h 9mph /  14.5km/h 78% 0in /  0.0mm 70.0 W/m2 SCT
08:19 54.3 °F /  12.4 °C 47.7 °F /  8.7 °C 30.1in /  1018.5hPa NNW 5mph /  8.0km/h 12mph /  19.3km/h 78% 0in /  0.0mm 104.0 W/m2 FEW
08:29 54.9 °F /  12.7 °C 47.5 °F /  8.6 °C 30.1in /  1018.5hPa NNW 3mph /  4.8km/h 10mph /  16.1km/h 76% 0in /  0.0mm 148.0 W/m2 FEW
08:39 55.6 °F /  13.1 °C 47.7 °F /  8.7 °C 30.1in /  1018.5hPa NNW 2mph /  3.2km/h 7mph /  11.3km/h 75% 0in /  0.0mm 193.0 W/m2 CLR
08:49 55.9 °F /  13.3 °C 48.2 °F /  9.0 °C 30.1in /  1018.5hPa NNW 3mph /  4.8km/h 9mph /  14.5km/h 75% 0in /  0.0mm 107.0 W/m2 CLR
08:59 56.3 °F /  13.5 °C 48.6 °F /  9.2 °C 30.1in /  1018.5hPa Calm   6mph /  9.7km/h 75% 0in /  0.0mm 42.0 W/m2 BKN
09:09 56.7 °F /  13.7 °C 49.3 °F /  9.6 °C 30.1in /  1018.5hPa NNW 1mph /  1.6km/h 8mph /  12.9km/h 76% 0in /  0.0mm 313.0 W/m2 FEW
09:19 57.6 °F /  14.2 °C 50 °F /  10.0 °C 30.1in /  1018.5hPa NNW 3mph /  4.8km/h 6mph /  9.7km/h 76% 0in /  0.0mm 371.0 W/m2 CLR
09:29 58.3 °F /  14.6 °C 50 °F /  10.0 °C 30.1in /  1018.5hPa WNW 6mph /  9.7km/h 12mph /  19.3km/h 74% 0in /  0.0mm 399.0 W/m2 CLR
09:39 58.3 °F /  14.6 °C 50.4 °F /  10.2 °C 30.1in /  1018.5hPa NW 3mph /  4.8km/h 12mph /  19.3km/h 75% 0in /  0.0mm 436.0 W/m2 CLR
09:49 58.6 °F /  14.8 °C 50.4 °F /  10.2 °C 30.1in /  1018.5hPa WNW 7mph /  11.3km/h 12mph /  19.3km/h 74% 0in /  0.0mm 490.0 W/m2 CLR
09:59 58.8 °F /  14.9 °C 50.7 °F /  10.4 °C 30.1in /  1018.5hPa West 9mph /  14.5km/h 14mph /  22.5km/h 74% 0in /  0.0mm 612.0 W/m2 CLR
10:09 59.5 °F /  15.3 °C 51.1 °F /  10.6 °C 30.1in /  1018.5hPa WNW 8mph /  12.9km/h 13mph /  20.9km/h 73% 0in /  0.0mm 592.0 W/m2 CLR
10:19 58.8 °F /  14.9 °C 50.2 °F /  10.1 °C 30.1in /  1018.5hPa WNW 6mph /  9.7km/h 15mph /  24.1km/h 73% 0in /  0.0mm 95.0 W/m2 SCT
10:29 57.9 °F /  14.4 °C 50.5 °F /  10.3 °C 30.1in /  1018.5hPa WNW 8mph /  12.9km/h 13mph /  20.9km/h 76% 0in /  0.0mm 772.0 W/m2 BKN
10:39 59.7 °F /  15.4 °C 51.6 °F /  10.9 °C 30.1in /  1018.5hPa WNW 12mph /  19.3km/h 16mph /  25.7km/h 75% 0in /  0.0mm 348.0 W/m2 FEW
10:49 58.8 °F /  14.9 °C 50.5 °F /  10.3 °C 30.1in /  1018.5hPa WNW 8mph /  12.9km/h 14mph /  22.5km/h 74% 0in /  0.0mm 151.0 W/m2 SCT
10:59 57.9 °F /  14.4 °C 50.7 °F /  10.4 °C 30.1in /  1018.5hPa WNW 7mph /  11.3km/h 14mph /  22.5km/h 77% 0in /  0.0mm 805.0 W/m2 BKN
11:09 60.3 °F /  15.7 °C 52 °F /  11.1 °C 30.1in /  1018.5hPa WNW 8mph /  12.9km/h 14mph /  22.5km/h 74% 0in /  0.0mm 795.0 W/m2 CLR
11:19 59.5 °F /  15.3 °C 50.5 °F /  10.3 °C 30.1in /  1018.5hPa WNW 7mph /  11.3km/h 14mph /  22.5km/h 72% 0in /  0.0mm 816.0 W/m2 SCT
11:29 61 °F /  16.1 °C 51.3 °F /  10.7 °C 30.1in /  1018.5hPa WNW 9mph /  14.5km/h 17mph /  27.4km/h 70% 0in /  0.0mm 854.0 W/m2 CLR
11:39 61.9 °F /  16.6 °C 51.1 °F /  10.6 °C 30.1in /  1018.8hPa West 9mph /  14.5km/h 16mph /  25.7km/h 68% 0in /  0.0mm 942.0 W/m2 CLR
11:49 61.7 °F /  16.5 °C 50.7 °F /  10.4 °C 30.1in /  1018.8hPa WNW 8mph /  12.9km/h 14mph /  22.5km/h 67% 0in /  0.0mm 265.0 W/m2 CLR
11:59 59.4 °F /  15.2 °C 50.4 °F /  10.2 °C 30.1in /  1018.8hPa WNW 5mph /  8.0km/h 13mph /  20.9km/h 72% 0in /  0.0mm 183.0 W/m2 BKN
12:09 62.2 °F /  16.8 °C 52 °F /  11.1 °C 30.1in /  1018.8hPa WNW 9mph /  14.5km/h 16mph /  25.7km/h 69% 0in /  0.0mm 1051.0 W/m2 CLR
12:19 61.7 °F /  16.5 °C 51.4 °F /  10.8 °C 30.1in /  1018.8hPa WNW 7mph /  11.3km/h 15mph /  24.1km/h 69% 0in /  0.0mm 896.0 W/m2 FEW
12:29 63 °F /  17.2 °C 52.3 °F /  11.3 °C 30.1in /  1018.5hPa West 9mph /  14.5km/h 15mph /  24.1km/h 68% 0in /  0.0mm 1215.0 W/m2 CLR
12:39 63.7 °F /  17.6 °C 52.2 °F /  11.2 °C 30.1in /  1018.5hPa WNW 5mph /  8.0km/h 14mph /  22.5km/h 66% 0in /  0.0mm 592.0 W/m2 CLR
12:49 61.7 °F /  16.5 °C 51.1 °F /  10.6 °C 30.1in /  1018.5hPa WNW 8mph /  12.9km/h 14mph /  22.5km/h 68% 0in /  0.0mm 399.0 W/m2 BKN
12:59 63.9 °F /  17.7 °C 52.7 °F /  11.5 °C 30.1in /  1018.2hPa WNW 8mph /  12.9km/h 15mph /  24.1km/h 67% 0in /  0.0mm 847.0 W/m2 CLR
13:09 63.7 °F /  17.6 °C 52.5 °F /  11.4 °C 30.1in /  1018.2hPa WNW 10mph /  16.1km/h 16mph /  25.7km/h 67% 0in /  0.0mm 1174.0 W/m2 CLR
13:19 63.7 °F /  17.6 °C 52.5 °F /  11.4 °C 30.1in /  1018.2hPa WNW 10mph /  16.1km/h 17mph /  27.4km/h 67% 0in /  0.0mm 1151.0 W/m2 CLR
13:29 63.9 °F /  17.7 °C 51.8 °F /  11.0 °C 30.1in /  1018.2hPa West 8mph /  12.9km/h 17mph /  27.4km/h 65% 0in /  0.0mm 399.0 W/m2 CLR
13:39 62.1 °F /  16.7 °C 52.9 °F /  11.6 °C 30.1in /  1018.2hPa West 8mph /  12.9km/h 15mph /  24.1km/h 72% 0in /  0.0mm 262.0 W/m2 SCT
13:49 60.1 °F /  15.6 °C 53.1 °F /  11.7 °C 30.1in /  1017.8hPa WSW 10mph /  16.1km/h 20mph /  32.2km/h 78% 0in /  0.0mm 686.0 W/m2 BKN
13:59 61.3 °F /  16.3 °C 54.3 °F /  12.4 °C 30.1in /  1018.2hPa WSW 10mph /  16.1km/h 15mph /  24.1km/h 78% 0in /  0.0mm 1463.0 W/m2 FEW
14:09 61.9 °F /  16.6 °C 54.7 °F /  12.6 °C 30.1in /  1017.8hPa WSW 10mph /  16.1km/h 17mph /  27.4km/h 77% 0in /  0.0mm 527.0 W/m2 FEW
14:19 61.3 °F /  16.3 °C 54.7 °F /  12.6 °C 30.1in /  1017.8hPa West 7mph /  11.3km/h 15mph /  24.1km/h 79% 0in /  0.0mm 949.0 W/m2 SCT
14:39 61.7 °F /  16.5 °C 53.8 °F /  12.1 °C 30.1in /  1017.8hPa WSW 8mph /  12.9km/h 12mph /  19.3km/h 75% 0in /  0.0mm 396.0 W/m2 BKN
14:49 60.8 °F /  16.0 °C 54.7 °F /  12.6 °C 30.1in /  1017.8hPa West 8mph /  12.9km/h 13mph /  20.9km/h 80% 0in /  0.0mm 557.0 W/m2 BKN
14:59 59.9 °F /  15.5 °C 54.1 °F /  12.3 °C 30.1in /  1017.5hPa WSW 7mph /  11.3km/h 12mph /  19.3km/h 81% 0in /  0.0mm 190.0 W/m2 BKN
15:09 60.3 °F /  15.7 °C 55.4 °F /  13.0 °C 30in /  1017.2hPa WSW 8mph /  12.9km/h 12mph /  19.3km/h 84% 0in /  0.0mm 376.0 W/m2 BKN
15:19 61.7 °F /  16.5 °C 55.6 °F /  13.1 °C 30in /  1017.2hPa WSW 12mph /  19.3km/h 17mph /  27.4km/h 80% 0in /  0.0mm 580.0 W/m2 SCT
15:29 61.9 °F /  16.6 °C 53.8 °F /  12.1 °C 30in /  1017.2hPa West 10mph /  16.1km/h 18mph /  29.0km/h 75% 0in /  0.0mm 424.0 W/m2 BKN
15:39 61.5 °F /  16.4 °C 53.2 °F /  11.8 °C 30in /  1016.8hPa WNW 9mph /  14.5km/h 16mph /  25.7km/h 74% 0in /  0.0mm 401.0 W/m2 BKN
15:49 61.9 °F /  16.6 °C 53.2 °F /  11.8 °C 30in /  1016.8hPa West 9mph /  14.5km/h 20mph /  32.2km/h 73% 0in /  0.0mm 378.0 W/m2 SCT
15:59 63.5 °F /  17.5 °C 54 °F /  12.2 °C 30in /  1016.8hPa West 12mph /  19.3km/h 19mph /  30.6km/h 71% 0in /  0.0mm 1081.0 W/m2 CLR
16:09 63.5 °F /  17.5 °C 53.6 °F /  12.0 °C 30in /  1016.8hPa West 8mph /  12.9km/h 18mph /  29.0km/h 70% 0in /  0.0mm 501.0 W/m2 CLR
16:19 62.1 °F /  16.7 °C 53.2 °F /  11.8 °C 30in /  1016.5hPa West 7mph /  11.3km/h 15mph /  24.1km/h 73% 0in /  0.0mm 323.0 W/m2 BKN
16:29 61.3 °F /  16.3 °C 54.1 °F /  12.3 °C 30in /  1016.5hPa West 9mph /  14.5km/h 14mph /  22.5km/h 77% 0in /  0.0mm 388.0 W/m2 BKN
16:39 61.5 °F /  16.4 °C 54.7 °F /  12.6 °C 30in /  1016.5hPa West 5mph /  8.0km/h 16mph /  25.7km/h 78% 0in /  0.0mm 589.0 W/m2 SCT
16:49 61.9 °F /  16.6 °C 54.1 °F /  12.3 °C 30in /  1016.1hPa West 6mph /  9.7km/h 15mph /  24.1km/h 76% 0in /  0.0mm 489.0 W/m2 SCT
16:59 61.9 °F /  16.6 °C 53.8 °F /  12.1 °C 30in /  1016.1hPa West 6mph /  9.7km/h 13mph /  20.9km/h 75% 0in /  0.0mm 431.0 W/m2 SCT
17:09 61.3 °F /  16.3 °C 53.1 °F /  11.7 °C 30in /  1016.1hPa WNW 12mph /  19.3km/h 17mph /  27.4km/h 74% 0in /  0.0mm 257.0 W/m2 BKN
17:19 60.3 °F /  15.7 °C 53.1 °F /  11.7 °C 30in /  1015.8hPa WNW 14mph /  22.5km/h 21mph /  33.8km/h 77% 0in /  0.0mm 151.0 W/m2 BKN
17:29 58.5 °F /  14.7 °C 52.3 °F /  11.3 °C 30in /  1016.1hPa NW 6mph /  9.7km/h 20mph /  32.2km/h 80% 0in /  0.0mm 200.0 W/m2 BKN
17:39 57.7 °F /  14.3 °C 51.6 °F /  10.9 °C 30in /  1016.1hPa NW 8mph /  12.9km/h 14mph /  22.5km/h 80% 0in /  0.0mm 239.0 W/m2 BKN
17:49 58.3 °F /  14.6 °C 52.5 °F /  11.4 °C 30in /  1016.1hPa WNW 7mph /  11.3km/h 15mph /  24.1km/h 81% 0in /  0.0mm 223.0 W/m2 BKN
17:59 58.3 °F /  14.6 °C 52.5 °F /  11.4 °C 30in /  1015.8hPa WNW 5mph /  8.0km/h 14mph /  22.5km/h 81% 0in /  0.0mm 232.0 W/m2 BKN
18:09 58.6 °F /  14.8 °C 52.5 °F /  11.4 °C 30in /  1015.8hPa WNW 6mph /  9.7km/h 15mph /  24.1km/h 80% 0in /  0.0mm 246.0 W/m2 BKN
18:19 59.2 °F /  15.1 °C 53.1 °F /  11.7 °C 30in /  1015.8hPa WNW 10mph /  16.1km/h 15mph /  24.1km/h 80% 0in /  0.0mm 178.0 W/m2 SCT
18:29 58.8 °F /  14.9 °C 52.9 °F /  11.6 °C 30in /  1015.5hPa WNW 8mph /  12.9km/h 13mph /  20.9km/h 81% 0in /  0.0mm 220.0 W/m2 BKN
18:39 58.6 °F /  14.8 °C 52.9 °F /  11.6 °C 30in /  1015.5hPa WNW 8mph /  12.9km/h 15mph /  24.1km/h 81% 0in /  0.0mm 267.0 W/m2 BKN
18:49 58.8 °F /  14.9 °C 53.2 °F /  11.8 °C 30in /  1015.5hPa WNW 8mph /  12.9km/h 13mph /  20.9km/h 82% 0in /  0.0mm 197.0 W/m2 BKN
18:59 59.7 °F /  15.4 °C 54 °F /  12.2 °C 30in /  1015.5hPa WNW 7mph /  11.3km/h 13mph /  20.9km/h 81% 0in /  0.0mm 118.0 W/m2 FEW
19:09 58.8 °F /  14.9 °C 53.1 °F /  11.7 °C 30in /  1015.5hPa WNW 7mph /  11.3km/h 12mph /  19.3km/h 81% 0in /  0.0mm 95.0 W/m2 BKN
19:19 58.6 °F /  14.8 °C 53.4 °F /  11.9 °C 30in /  1015.5hPa West 8mph /  12.9km/h 12mph /  19.3km/h 83% 0in /  0.0mm 67.0 W/m2 BKN
19:29 58.5 °F /  14.7 °C 54 °F /  12.2 °C 30in /  1015.5hPa WNW 5mph /  8.0km/h 10mph /  16.1km/h 85% 0in /  0.0mm 39.0 W/m2 BKN
19:39 58.3 °F /  14.6 °C 53.8 °F /  12.1 °C 30in /  1015.1hPa WNW 5mph /  8.0km/h 13mph /  20.9km/h 85% 0in /  0.0mm 54.0 W/m2 BKN
19:49 58.3 °F /  14.6 °C 54.1 °F /  12.3 °C 30in /  1015.5hPa WNW 6mph /  9.7km/h 12mph /  19.3km/h 86% 0in /  0.0mm 84.0 W/m2 SCT
19:59 58.5 °F /  14.7 °C 54.1 °F /  12.3 °C 30in /  1015.5hPa West 6mph /  9.7km/h 12mph /  19.3km/h 86% 0in /  0.0mm 39.0 W/m2 SCT
20:09 58.3 °F /  14.6 °C 54 °F /  12.2 °C 30in /  1015.1hPa WNW 5mph /  8.0km/h 12mph /  19.3km/h 86% 0in /  0.0mm 19.0 W/m2 SCT
20:19 58.3 °F /  14.6 °C 54.1 °F /  12.3 °C 30in /  1015.1hPa WNW 7mph /  11.3km/h 15mph /  24.1km/h 86% 0in /  0.0mm 9.0 W/m2 SCT
20:29 57.7 °F /  14.3 °C 53.4 °F /  11.9 °C 30in /  1015.1hPa WNW 7mph /  11.3km/h 16mph /  25.7km/h 86% 0.02in /  0.5mm 0.0 W/m2 RA
20:39 57.4 °F /  14.1 °C 53.4 °F /  11.9 °C 30in /  1015.1hPa NW 12mph /  19.3km/h 22mph /  35.4km/h 87% 0.03in /  0.8mm 14.0 W/m2 RA
20:49 56.5 °F /  13.6 °C 52.9 °F /  11.6 °C 30in /  1015.1hPa NNW 8mph /  12.9km/h 12mph /  19.3km/h 88% 0.02in /  0.5mm 5.0 W/m2 RA
20:59 55.9 °F /  13.3 °C 52.9 °F /  11.6 °C 30in /  1015.1hPa NW 6mph /  9.7km/h 12mph /  19.3km/h 89% 0in /  0.0mm 0.0 W/m2 SCT
21:09 55.9 °F /  13.3 °C 52.9 °F /  11.6 °C 30in /  1015.1hPa NNW 8mph /  12.9km/h 14mph /  22.5km/h 89% 0in /  0.0mm 0.0 W/m2 SCT
21:19 56.1 °F /  13.4 °C 52.5 °F /  11.4 °C 30in /  1015.1hPa NW 9mph /  14.5km/h 15mph /  24.1km/h 88% 0in /  0.0mm 0.0 W/m2 SCT
21:29 56.3 °F /  13.5 °C 52.9 °F /  11.6 °C 30in /  1015.1hPa NW 8mph /  12.9km/h 14mph /  22.5km/h 88% 0in /  0.0mm 0.0 W/m2 SCT
21:39 56.7 °F /  13.7 °C 53.1 °F /  11.7 °C 30in /  1015.1hPa NW 9mph /  14.5km/h 20mph /  32.2km/h 88% 0in /  0.0mm 0.0 W/m2 SCT
21:49 56.8 °F /  13.8 °C 53.4 °F /  11.9 °C 30in /  1015.1hPa NW 10mph /  16.1km/h 15mph /  24.1km/h 88% 0in /  0.0mm 0.0 W/m2 SCT
21:59 57.2 °F /  14.0 °C 53.6 °F /  12.0 °C 30in /  1015.5hPa NW 5mph /  8.0km/h 14mph /  22.5km/h 88% 0in /  0.0mm 0.0 W/m2 SCT
22:09 57 °F /  13.9 °C 53.8 °F /  12.1 °C 30in /  1015.5hPa NW 9mph /  14.5km/h 13mph /  20.9km/h 89% 0in /  0.0mm 0.0 W/m2 SCT
22:19 57 °F /  13.9 °C 53.8 °F /  12.1 °C 30in /  1015.5hPa NW 6mph /  9.7km/h 12mph /  19.3km/h 89% 0in /  0.0mm 0.0 W/m2 SCT
22:29 56.8 °F /  13.8 °C 53.8 °F /  12.1 °C 30in /  1015.5hPa NW 9mph /  14.5km/h 15mph /  24.1km/h 89% 0in /  0.0mm 0.0 W/m2 SCT
22:39 56.7 °F /  13.7 °C 53.4 °F /  11.9 °C 30in /  1015.5hPa NW 9mph /  14.5km/h 15mph /  24.1km/h 89% 0in /  0.0mm 0.0 W/m2 SCT
22:49 56.8 °F /  13.8 °C 53.2 °F /  11.8 °C 30in /  1015.5hPa NW 8mph /  12.9km/h 15mph /  24.1km/h 88% 0in /  0.0mm 0.0 W/m2 SCT
22:59 56.8 °F /  13.8 °C 53.4 °F /  11.9 °C 30in /  1015.5hPa NW 10mph /  16.1km/h 15mph /  24.1km/h 88% 0in /  0.0mm 0.0 W/m2 SCT
23:09 57 °F /  13.9 °C 53.4 °F /  11.9 °C 30in /  1015.5hPa NW 5mph /  8.0km/h 12mph /  19.3km/h 88% 0in /  0.0mm 0.0 W/m2 SCT
23:19 56.8 °F /  13.8 °C 53.4 °F /  11.9 °C 30in /  1015.5hPa NW 5mph /  8.0km/h 10mph /  16.1km/h 88% 0in /  0.0mm 0.0 W/m2 SCT
23:29 57 °F /  13.9 °C 53.4 °F /  11.9 °C 30in /  1015.5hPa NW 2mph /  3.2km/h 10mph /  16.1km/h 88% 0in /  0.0mm 0.0 W/m2 SCT
23:39 57.2 °F /  14.0 °C 54 °F /  12.2 °C 30in /  1015.5hPa West 2mph /  3.2km/h 12mph /  19.3km/h 89% 0in /  0.0mm 0.0 W/m2 SCT
23:59 57.4 °F /  14.1 °C 54.3 °F /  12.4 °C 30in /  1015.5hPa WNW 9mph /  14.5km/h 20mph /  32.2km/h 90% 0in /  0.0mm 0.0 W/m2 RA
Sans Souci Weather
Compliments of Weather Underground

CWOP

www.awekas.at

Iberian Peninsular Network

Meteo PT

World Weather Websites

Weathercamsites.com